Time;durP1;ratioP1;P1;durP2;ratioP2;P2;SDS_P1;SDS_P2;PMS_P1;PMS_P2;Temp;Humidity;BMP_temperature;BMP_pressure;BME280_temperature;BME280_humidity;BME280_pressure;Samples;Min_cycle;Max_cycle;Signal;HPM_P1;HPM_P2
2021/11/25 00:02:16;;;;;;;15.77;14.20;;;1.50;99.90;;;;;;5091946;28;20174;-65
2021/11/25 00:04:42;;;;;;;17.93;14.40;;;1.50;99.90;;;;;;5091725;28;20224;-65
2021/11/25 00:07:08;;;;;;;20.37;16.13;;;1.50;99.90;;;;;;5091918;28;20192;-65
2021/11/25 00:09:34;;;;;;;16.43;14.73;;;1.60;99.90;;;;;;5091141;28;20182;-65
2021/11/25 00:11:59;;;;;;;17.47;15.67;;;1.60;99.90;;;;;;5091835;28;20170;-66
2021/11/25 00:14:26;;;;;;;18.80;15.00;;;1.70;99.90;;;;;;5092004;28;20173;-65
2021/11/25 00:16:52;;;;;;;14.27;12.87;;;1.70;99.90;;;;;;5092000;28;20208;-65
2021/11/25 00:19:17;;;;;;;16.13;14.43;;;1.60;99.90;;;;;;5091266;28;20169;-65
2021/11/25 00:21:43;;;;;;;13.80;12.60;;;1.60;99.90;;;;;;5094554;28;20522;-64
2021/11/25 00:24:09;;;;;;;15.73;14.20;;;1.50;99.90;;;;;;5095580;28;20682;-65
2021/11/25 00:26:35;;;;;;;13.07;11.90;;;1.50;99.90;;;;;;5095328;28;20189;-65
2021/11/25 00:29:03;;;;;;;13.53;12.33;;;1.60;99.90;;;;;;5095497;28;20174;-65
2021/11/25 00:31:29;;;;;;;14.73;13.47;;;1.70;99.90;;;;;;5094215;28;20642;-65
2021/11/25 00:33:55;;;;;;;18.33;13.57;;;1.70;99.90;;;;;;5095762;28;20650;-65
2021/11/25 00:36:21;;;;;;;15.57;14.10;;;1.70;99.90;;;;;;5095432;28;20222;-65
2021/11/25 00:38:47;;;;;;;14.57;13.07;;;1.70;99.90;;;;;;5095535;28;20172;-65
2021/11/25 00:41:13;;;;;;;14.37;12.87;;;1.80;99.90;;;;;;5094972;28;20272;-65
2021/11/25 00:43:39;;;;;;;15.97;12.50;;;1.90;99.90;;;;;;5094146;28;20177;-65
2021/11/25 00:46:05;;;;;;;15.40;13.10;;;1.90;99.90;;;;;;5094827;28;20232;-65
2021/11/25 00:48:31;;;;;;;13.30;12.20;;;2.00;99.90;;;;;;5093902;28;20170;-65
2021/11/25 00:50:56;;;;;;;13.10;11.90;;;2.00;99.90;;;;;;5094711;28;20171;-65
2021/11/25 00:53:22;;;;;;;14.43;12.93;;;2.00;99.90;;;;;;5095193;28;20530;-65
2021/11/25 00:55:47;;;;;;;12.63;11.63;;;2.20;99.90;;;;;;5094939;28;20208;-65
2021/11/25 00:58:14;;;;;;;12.50;11.40;;;2.20;99.90;;;;;;5094915;28;20205;-65
2021/11/25 01:00:40;;;;;;;13.93;12.53;;;2.20;99.90;;;;;;5094461;28;20240;-67
2021/11/25 01:03:05;;;;;;;13.60;12.50;;;2.30;99.90;;;;;;5095013;28;20169;-65
2021/11/25 01:05:31;;;;;;;13.37;12.23;;;2.20;99.90;;;;;;5094667;28;20209;-65
2021/11/25 01:07:57;;;;;;;15.07;13.77;;;2.30;99.90;;;;;;5094772;28;20269;-65
2021/11/25 01:10:23;;;;;;;14.80;13.43;;;2.40;99.90;;;;;;5094136;28;20213;-64
2021/11/25 01:12:51;;;;;;;14.53;13.13;;;2.40;99.90;;;;;;5095070;28;20177;-66
2021/11/25 01:15:18;;;;;;;14.60;13.40;;;2.30;99.90;;;;;;5094149;28;20651;-65
2021/11/25 01:17:44;;;;;;;14.33;13.03;;;2.30;99.90;;;;;;5094510;28;20197;-65
2021/11/25 01:20:14;;;;;;;12.47;11.43;;;2.10;99.90;;;;;;5093789;28;20646;-65
2021/11/25 01:22:40;;;;;;;14.07;12.93;;;2.00;99.90;;;;;;5094554;28;20638;-65
2021/11/25 01:25:07;;;;;;;12.83;11.63;;;2.00;99.90;;;;;;5092737;28;20237;-65
2021/11/25 01:27:32;;;;;;;12.30;11.30;;;1.90;99.90;;;;;;5093884;28;20547;-65
2021/11/25 01:29:58;;;;;;;13.23;12.13;;;1.80;99.90;;;;;;5093854;28;20166;-64
2021/11/25 01:32:24;;;;;;;12.90;11.80;;;1.70;99.90;;;;;;5093713;28;20172;-65
2021/11/25 01:34:49;;;;;;;12.57;11.57;;;1.50;99.90;;;;;;5094351;28;20315;-65
2021/11/25 01:37:15;;;;;;;12.13;10.93;;;1.40;99.90;;;;;;5093622;28;20205;-64
2021/11/25 01:39:40;;;;;;;12.50;11.60;;;1.30;99.90;;;;;;5093773;28;20181;-65
2021/11/25 01:42:06;;;;;;;12.17;11.00;;;1.30;99.90;;;;;;5093951;28;20177;-65
2021/11/25 01:44:32;;;;;;;12.73;11.03;;;1.20;99.90;;;;;;5093942;28;20197;-65
2021/11/25 01:47:02;;;;;;;11.83;10.83;;;1.10;99.90;;;;;;5093900;28;20192;-65
2021/11/25 01:49:28;;;;;;;12.27;11.33;;;1.20;99.90;;;;;;5093763;28;20189;-65
2021/11/25 01:51:53;;;;;;;12.63;11.47;;;1.10;99.90;;;;;;5093753;28;20242;-64
2021/11/25 01:54:19;;;;;;;12.33;11.20;;;1.00;99.90;;;;;;5093703;28;20658;-65
2021/11/25 01:56:45;;;;;;;12.53;11.53;;;1.00;99.90;;;;;;5093580;28;20686;-65
2021/11/25 01:59:11;;;;;;;13.23;12.00;;;1.10;99.90;;;;;;5093280;28;20223;-65
2021/11/25 02:01:37;;;;;;;13.20;12.17;;;1.10;99.90;;;;;;5093430;28;20242;-65
2021/11/25 02:04:05;;;;;;;11.80;10.90;;;1.20;99.90;;;;;;5092065;28;20177;-65
2021/11/25 02:06:31;;;;;;;13.37;12.03;;;1.30;99.90;;;;;;5093009;28;20190;-65
2021/11/25 02:08:57;;;;;;;12.93;11.83;;;1.40;99.90;;;;;;5093464;28;20201;-65
2021/11/25 02:11:23;;;;;;;13.27;11.97;;;1.50;99.90;;;;;;5092966;28;20598;-65
2021/11/25 02:13:48;;;;;;;12.90;11.80;;;1.60;99.90;;;;;;5093722;28;20544;-64
2021/11/25 02:16:14;;;;;;;14.27;13.00;;;1.60;99.90;;;;;;5092462;28;20169;-64
2021/11/25 02:18:40;;;;;;;13.47;12.17;;;1.70;99.90;;;;;;5093320;28;20209;-65
2021/11/25 02:21:06;;;;;;;13.87;12.60;;;1.90;99.90;;;;;;5093160;28;20176;-65
2021/11/25 02:23:32;;;;;;;12.90;11.73;;;2.00;99.90;;;;;;5093421;28;20543;-65
2021/11/25 02:25:58;;;;;;;13.97;12.47;;;2.00;99.90;;;;;;5093207;28;20204;-64
2021/11/25 02:28:30;;;;;;;14.60;13.20;;;2.10;99.90;;;;;;5093164;28;20288;-65
2021/11/25 02:30:56;;;;;;;14.93;13.63;;;2.20;99.90;;;;;;5071075;28;20541;-65
2021/11/25 02:33:21;;;;;;;15.97;14.60;;;2.20;99.90;;;;;;5072887;28;20219;-65
2021/11/25 02:35:48;;;;;;;16.07;14.57;;;2.30;99.90;;;;;;5075478;28;20174;-65
2021/11/25 02:38:15;;;;;;;15.40;13.07;;;2.30;99.90;;;;;;5092775;28;20205;-65
2021/11/25 02:40:47;;;;;;;14.30;12.87;;;2.30;99.90;;;;;;5092378;28;20165;-65
2021/11/25 02:43:16;;;;;;;19.77;18.03;;;2.40;99.90;;;;;;5092429;28;20170;-65
2021/11/25 02:45:56;;;;;;;15.13;13.83;;;2.50;99.90;;;;;;5092747;28;20284;-65
2021/11/25 02:48:25;;;;;;;13.77;12.63;;;2.50;99.90;;;;;;5092452;28;20198;-65
2021/11/25 02:50:53;;;;;;;16.47;14.83;;;2.50;99.90;;;;;;5092460;28;20198;-64
2021/11/25 02:53:25;;;;;;;16.23;14.67;;;2.50;99.90;;;;;;5092770;28;20179;-65
2021/11/25 02:55:58;;;;;;;19.47;16.20;;;2.50;99.90;;;;;;5092380;28;20177;-66
2021/11/25 02:58:25;;;;;;;14.07;12.80;;;2.50;99.90;;;;;;5072179;28;20193;-65
2021/11/25 03:00:55;;;;;;;17.83;13.07;;;2.50;99.90;;;;;;5071986;28;20719;-65
2021/11/25 03:03:21;;;;;;;13.27;12.17;;;2.50;99.90;;;;;;5092418;28;20197;-65
2021/11/25 03:05:49;;;;;;;14.47;13.17;;;2.60;99.90;;;;;;5092788;28;20604;-65
2021/11/25 03:08:16;;;;;;;13.07;11.77;;;2.60;99.90;;;;;;5091961;28;20225;-65
2021/11/25 03:10:46;;;;;;;13.53;12.43;;;2.70;99.90;;;;;;5093190;28;20161;-68
2021/11/25 03:13:14;;;;;;;13.33;12.33;;;2.70;99.90;;;;;;5093465;28;20222;-68
2021/11/25 03:15:40;;;;;;;13.30;12.07;;;2.70;99.90;;;;;;5093464;28;20524;-69
2021/11/25 03:18:08;;;;;;;14.97;13.47;;;2.70;99.90;;;;;;5092955;28;20360;-68
2021/11/25 03:20:36;;;;;;;15.83;14.23;;;2.70;99.90;;;;;;5093368;28;20174;-68
2021/11/25 03:23:02;;;;;;;14.90;13.50;;;2.60;99.90;;;;;;5093447;28;20188;-69
2021/11/25 03:25:28;;;;;;;14.80;13.40;;;2.70;99.90;;;;;;5093453;28;20246;-71
2021/11/25 03:27:54;;;;;;;13.53;12.30;;;2.70;99.90;;;;;;5093095;28;20197;-69
2021/11/25 03:30:20;;;;;;;13.57;12.30;;;2.70;99.90;;;;;;5093042;28;20170;-68
2021/11/25 03:32:46;;;;;;;13.17;11.87;;;2.70;99.90;;;;;;5093822;28;20170;-70
2021/11/25 03:35:12;;;;;;;12.50;11.37;;;2.70;99.90;;;;;;5093037;28;20226;-68
2021/11/25 03:37:38;;;;;;;13.80;12.40;;;2.70;99.90;;;;;;5093826;28;20211;-68
2021/11/25 03:40:06;;;;;;;12.33;11.33;;;2.70;99.90;;;;;;5092648;28;20256;-67
2021/11/25 03:42:32;;;;;;;14.40;12.97;;;2.60;99.90;;;;;;5093000;28;20262;-68
2021/11/25 03:44:58;;;;;;;13.37;12.27;;;2.60;99.90;;;;;;5091540;28;20530;-68
2021/11/25 03:47:23;;;;;;;14.93;13.37;;;2.50;99.90;;;;;;5091928;28;20281;-70
2021/11/25 03:49:49;;;;;;;12.53;11.47;;;2.60;99.90;;;;;;5091735;28;20534;-69
2021/11/25 03:52:15;;;;;;;15.63;13.33;;;2.60;99.90;;;;;;5093370;28;20196;-68
2021/11/25 03:54:41;;;;;;;13.50;12.40;;;2.50;99.90;;;;;;5092507;28;20177;-67
2021/11/25 03:57:08;;;;;;;14.17;12.87;;;2.60;99.90;;;;;;5093057;28;20288;-69
2021/11/25 03:59:34;;;;;;;15.50;13.80;;;2.50;99.90;;;;;;5092815;28;20176;-67
2021/11/25 04:02:00;;;;;;;18.60;13.87;;;2.50;99.90;;;;;;5092923;28;20553;-67
2021/11/25 04:04:25;;;;;;;16.40;14.90;;;2.60;99.90;;;;;;5092989;28;20263;-67
2021/11/25 04:06:51;;;;;;;19.43;17.13;;;2.60;99.90;;;;;;5093226;28;20685;-68
2021/11/25 04:09:17;;;;;;;17.57;15.83;;;2.70;99.90;;;;;;5090975;28;20169;-67
2021/11/25 04:11:42;;;;;;;17.67;16.03;;;2.70;99.90;;;;;;5092710;28;20265;-68
2021/11/25 04:14:08;;;;;;;18.80;16.90;;;2.80;99.90;;;;;;5092112;28;20169;-69
2021/11/25 04:16:34;;;;;;;17.77;16.33;;;2.80;99.90;;;;;;5092646;28;20204;-68
2021/11/25 04:18:59;;;;;;;18.43;16.63;;;2.80;99.90;;;;;;5093013;28;20215;-70
2021/11/25 04:21:25;;;;;;;16.77;15.10;;;2.90;99.90;;;;;;5093008;28;20173;-67
2021/11/25 04:23:51;;;;;;;18.63;16.93;;;2.90;99.90;;;;;;5091641;28;20281;-71
2021/11/25 04:26:17;;;;;;;16.87;15.40;;;3.00;99.90;;;;;;5091570;28;20288;-70
2021/11/25 04:28:42;;;;;;;18.17;15.97;;;3.00;99.90;;;;;;5093227;28;20188;-66
2021/11/25 04:36:37;;;;;;;18.20;16.30;;;2.90;99.90;;;;;;5092536;28;20216;-68
2021/11/25 04:39:06;;;;;;;17.60;15.90;;;2.90;99.90;;;;;;5092389;28;20178;-69
2021/11/25 04:41:32;;;;;;;17.37;15.70;;;2.80;99.90;;;;;;5088848;28;20200;-68
2021/11/25 04:43:57;;;;;;;18.33;16.57;;;2.80;99.90;;;;;;5091860;28;20689;-68
2021/11/25 04:46:23;;;;;;;21.50;19.30;;;2.80;99.90;;;;;;5091982;28;20206;-68
2021/11/25 04:48:49;;;;;;;18.40;16.47;;;2.90;99.90;;;;;;5093009;28;20634;-68
2021/11/25 04:51:15;;;;;;;20.10;17.30;;;2.90;99.90;;;;;;5092438;28;20182;-66
2021/11/25 04:53:40;;;;;;;18.40;15.20;;;2.90;99.90;;;;;;5093155;28;20184;-69
2021/11/25 04:56:06;;;;;;;16.67;14.83;;;3.00;99.90;;;;;;5090859;28;20584;-65
2021/11/25 04:58:32;;;;;;;16.60;14.90;;;2.90;99.90;;;;;;5091385;28;20578;-64
2021/11/25 05:00:58;;;;;;;16.93;15.27;;;2.80;99.90;;;;;;5091433;28;20362;-65
2021/11/25 05:03:24;;;;;;;17.17;15.47;;;2.90;99.90;;;;;;5090254;28;20227;-64
2021/11/25 05:05:50;;;;;;;18.20;16.37;;;2.90;99.90;;;;;;5091083;28;20670;-64
2021/11/25 05:08:15;;;;;;;19.30;16.97;;;3.00;99.90;;;;;;5094724;28;20190;-65
2021/11/25 05:10:41;;;;;;;19.20;17.20;;;3.00;99.90;;;;;;5094786;28;20180;-64
2021/11/25 05:13:08;;;;;;;17.03;15.30;;;3.00;99.90;;;;;;5095254;28;20162;-65
2021/11/25 05:15:33;;;;;;;20.63;14.83;;;3.00;99.90;;;;;;5094432;28;20177;-65
2021/11/25 05:17:59;;;;;;;17.57;15.17;;;3.00;99.90;;;;;;5094945;28;20562;-64
2021/11/25 05:20:25;;;;;;;16.23;14.73;;;3.00;99.90;;;;;;5094117;28;20181;-64
2021/11/25 05:22:51;;;;;;;18.90;16.40;;;3.00;99.90;;;;;;5095234;28;20173;-64
2021/11/25 05:25:18;;;;;;;18.30;15.60;;;3.00;99.90;;;;;;5094798;28;20288;-64
2021/11/25 05:27:45;;;;;;;19.60;16.50;;;3.00;99.90;;;;;;5094878;28;20190;-64
2021/11/25 05:30:13;;;;;;;20.70;18.53;;;2.90;99.90;;;;;;5094132;28;20587;-65
2021/11/25 05:32:39;;;;;;;21.47;17.87;;;2.80;99.90;;;;;;5094735;28;20181;-64
2021/11/25 05:35:06;;;;;;;20.33;18.23;;;2.80;99.90;;;;;;5094558;28;20173;-64
2021/11/25 05:37:33;;;;;;;18.80;16.87;;;2.70;99.90;;;;;;5094152;28;20244;-65
2021/11/25 05:39:58;;;;;;;20.37;18.10;;;2.80;99.90;;;;;;5093760;28;20577;-65
2021/11/25 05:42:24;;;;;;;20.60;18.47;;;2.80;99.90;;;;;;5093997;28;20173;-65
2021/11/25 05:44:50;;;;;;;19.03;17.07;;;2.80;99.90;;;;;;5094335;28;20249;-65
2021/11/25 05:47:16;;;;;;;26.80;17.20;;;2.80;99.90;;;;;;5093977;28;20189;-65
2021/11/25 05:49:42;;;;;;;24.53;20.63;;;2.80;99.90;;;;;;5093780;28;20246;-65
2021/11/25 05:52:07;;;;;;;20.63;18.43;;;2.80;99.90;;;;;;5094129;28;20201;-64
2021/11/25 05:54:33;;;;;;;25.50;19.70;;;2.80;99.90;;;;;;5093774;28;20560;-65
2021/11/25 05:57:00;;;;;;;20.40;18.33;;;2.80;99.90;;;;;;5093726;28;20262;-65
2021/11/25 05:59:25;;;;;;;22.90;19.83;;;2.80;99.90;;;;;;5093428;28;20260;-65
2021/11/25 06:01:51;;;;;;;23.67;19.67;;;2.80;99.90;;;;;;5094021;28;20300;-65
2021/11/25 06:04:16;;;;;;;21.87;19.50;;;2.90;99.90;;;;;;5093548;28;20185;-65
2021/11/25 06:06:42;;;;;;;20.73;18.63;;;2.90;99.90;;;;;;5093963;28;20185;-65
2021/11/25 06:09:08;;;;;;;24.30;19.43;;;3.00;99.90;;;;;;5093570;28;20588;-64
2021/11/25 06:11:33;;;;;;;21.47;19.20;;;3.00;99.90;;;;;;5093545;28;20252;-64
2021/11/25 06:13:59;;;;;;;21.47;19.23;;;3.00;99.90;;;;;;5092313;28;20170;-64
2021/11/25 06:16:24;;;;;;;20.73;18.50;;;3.00;99.90;;;;;;5093374;28;20197;-64
2021/11/25 06:18:50;;;;;;;24.77;18.83;;;2.90;99.90;;;;;;5092251;28;20181;-64
2021/11/25 06:21:15;;;;;;;20.40;17.30;;;2.90;99.90;;;;;;5093180;28;20169;-64
2021/11/25 06:23:41;;;;;;;22.90;19.70;;;2.90;99.90;;;;;;5093167;28;20209;-64
2021/11/25 06:26:08;;;;;;;21.90;19.50;;;2.90;99.90;;;;;;5093236;28;20271;-64
2021/11/25 06:28:33;;;;;;;24.37;18.80;;;2.90;99.90;;;;;;5092854;28;20173;-64
2021/11/25 06:30:59;;;;;;;20.40;18.30;;;2.90;99.90;;;;;;5092425;28;20261;-64
2021/11/25 06:33:25;;;;;;;26.20;18.73;;;2.80;99.90;;;;;;5093243;28;20219;-64
2021/11/25 06:35:51;;;;;;;25.33;18.93;;;2.80;99.90;;;;;;5093610;28;20180;-64
2021/11/25 06:38:18;;;;;;;26.03;19.27;;;2.60;99.90;;;;;;5092576;28;20702;-64
2021/11/25 06:40:45;;;;;;;22.83;17.27;;;2.50;99.90;;;;;;5092986;28;20203;-64
2021/11/25 06:43:10;;;;;;;20.63;16.53;;;2.30;99.90;;;;;;5091446;28;20708;-64
2021/11/25 06:45:37;;;;;;;18.17;15.37;;;2.20;99.90;;;;;;5092863;28;20205;-63
2021/11/25 06:48:04;;;;;;;16.93;15.13;;;1.90;99.90;;;;;;5092693;28;20194;-63
2021/11/25 06:50:30;;;;;;;23.70;16.93;;;1.70;99.90;;;;;;5092216;28;20165;-63
2021/11/25 06:52:56;;;;;;;18.13;15.80;;;1.70;99.90;;;;;;5093784;28;20173;-64
2021/11/25 06:55:23;;;;;;;22.00;15.53;;;1.60;99.90;;;;;;5091329;28;20169;-64
2021/11/25 06:57:51;;;;;;;20.30;16.73;;;1.50;99.90;;;;;;5092406;28;20243;-63
2021/11/25 07:00:25;;;;;;;21.13;17.03;;;1.40;99.90;;;;;;5092497;28;20177;-64
2021/11/25 07:02:54;;;;;;;19.40;16.53;;;1.40;99.90;;;;;;5090665;28;20187;-64
2021/11/25 07:05:21;;;;;;;18.43;15.60;;;1.30;99.90;;;;;;5092259;28;20669;-64
2021/11/25 07:07:47;;;;;;;20.13;17.70;;;1.20;99.90;;;;;;5091877;28;20197;-63
2021/11/25 07:10:14;;;;;;;22.23;16.83;;;1.10;99.90;;;;;;5090788;28;20662;-63
2021/11/25 07:12:40;;;;;;;24.80;16.37;;;1.00;99.90;;;;;;5092373;28;20176;-64
2021/11/25 07:15:08;;;;;;;17.90;16.07;;;0.90;99.90;;;;;;5092704;28;20204;-64
2021/11/25 07:17:34;;;;;;;17.53;15.73;;;0.90;99.90;;;;;;5091453;28;20201;-65
2021/11/25 07:19:59;;;;;;;24.63;17.63;;;0.90;99.90;;;;;;5091594;28;20639;-65
2021/11/25 07:22:26;;;;;;;25.87;18.27;;;0.90;99.90;;;;;;5083383;28;20567;-63
2021/11/25 07:24:52;;;;;;;24.23;18.90;;;0.90;99.90;;;;;;5071866;28;20700;-64
2021/11/25 07:27:21;;;;;;;25.97;19.97;;;0.90;99.90;;;;;;5071605;28;20194;-64
2021/11/25 07:29:46;;;;;;;21.53;18.33;;;0.90;99.90;;;;;;5071292;28;20177;-65
2021/11/25 07:32:12;;;;;;;26.10;21.17;;;1.00;99.90;;;;;;5071738;28;20549;-64
2021/11/25 07:34:37;;;;;;;28.27;19.10;;;1.00;99.90;;;;;;5069503;28;20524;-65
2021/11/25 07:37:03;;;;;;;22.97;17.37;;;1.00;99.90;;;;;;5071286;28;20237;-63
2021/11/25 07:39:29;;;;;;;22.83;18.37;;;1.10;99.90;;;;;;5071206;28;20776;-65
2021/11/25 07:41:56;;;;;;;26.37;20.00;;;1.10;99.90;;;;;;5071662;28;20261;-64
2021/11/25 07:44:21;;;;;;;20.00;17.43;;;1.20;99.90;;;;;;5071341;28;20206;-64
2021/11/25 07:46:47;;;;;;;23.03;16.37;;;1.20;99.90;;;;;;5071652;28;20221;-64
2021/11/25 07:49:13;;;;;;;22.50;17.90;;;1.30;99.90;;;;;;5071287;28;20166;-64
2021/11/25 07:51:38;;;;;;;20.67;17.63;;;1.40;99.90;;;;;;5071773;28;20194;-63
2021/11/25 07:54:08;;;;;;;27.17;18.80;;;1.30;99.90;;;;;;5071523;28;20170;-64
2021/11/25 07:56:35;;;;;;;20.30;17.77;;;1.40;99.90;;;;;;5071112;28;20217;-64
2021/11/25 07:59:01;;;;;;;19.93;17.87;;;1.40;99.90;;;;;;5071315;28;20314;-64
2021/11/25 08:01:27;;;;;;;26.70;17.67;;;1.40;99.90;;;;;;5071274;28;20266;-64
2021/11/25 08:03:52;;;;;;;24.90;18.30;;;1.50;99.90;;;;;;5071470;28;20185;-64
2021/11/25 08:06:18;;;;;;;23.50;16.47;;;1.50;99.90;;;;;;5071012;28;20198;-64
2021/11/25 08:08:44;;;;;;;25.73;18.37;;;1.60;99.90;;;;;;5071395;28;20162;-64
2021/11/25 08:11:09;;;;;;;22.07;18.60;;;1.60;99.90;;;;;;5071275;28;20178;-64
2021/11/25 08:13:35;;;;;;;25.00;18.53;;;1.70;99.90;;;;;;5090629;28;20181;-63
2021/11/25 08:16:01;;;;;;;23.20;18.33;;;1.80;99.90;;;;;;5090587;28;20169;-64
2021/11/25 08:18:26;;;;;;;27.73;19.90;;;1.90;99.90;;;;;;5090661;28;20207;-65
2021/11/25 08:20:52;;;;;;;22.93;17.43;;;2.00;99.90;;;;;;5090717;28;20177;-64
2021/11/25 08:23:18;;;;;;;24.30;19.37;;;2.10;99.90;;;;;;5091367;28;20180;-64
2021/11/25 08:25:44;;;;;;;28.67;18.90;;;2.30;99.90;;;;;;5091116;28;20204;-63
2021/11/25 08:28:09;;;;;;;28.87;20.60;;;2.30;99.90;;;;;;5089491;28;20276;-64
2021/11/25 08:30:36;;;;;;;28.03;22.40;;;2.50;99.90;;;;;;5090812;28;20260;-64
2021/11/25 08:33:02;;;;;;;28.87;21.70;;;2.70;99.90;;;;;;5091013;28;20222;-64
2021/11/25 08:35:28;;;;;;;28.57;22.50;;;3.10;99.90;;;;;;5091355;28;20181;-64
2021/11/25 08:37:55;;;;;;;28.90;20.40;;;3.50;99.90;;;;;;5090872;28;20498;-64
2021/11/25 08:40:22;;;;;;;27.87;19.93;;;3.70;99.90;;;;;;5090612;28;20174;-64
2021/11/25 08:42:48;;;;;;;26.63;20.43;;;3.90;99.90;;;;;;5093973;28;20181;-64
2021/11/25 08:45:15;;;;;;;26.77;21.03;;;4.30;99.90;;;;;;5095119;28;20549;-65
2021/11/25 08:47:41;;;;;;;29.27;20.43;;;4.70;99.90;;;;;;5094725;28;20209;-65
2021/11/25 08:50:09;;;;;;;27.77;20.70;;;5.00;99.90;;;;;;5094772;28;20170;-64
2021/11/25 08:52:35;;;;;;;25.63;19.73;;;5.40;99.90;;;;;;5094280;28;20650;-64
2021/11/25 08:55:00;;;;;;;21.60;18.30;;;5.70;99.90;;;;;;5095033;28;20274;-64
2021/11/25 08:57:27;;;;;;;19.60;17.53;;;6.00;99.90;;;;;;5093899;28;20271;-64
2021/11/25 08:59:52;;;;;;;18.67;16.63;;;6.30;99.90;;;;;;5094607;28;20201;-64
2021/11/25 09:02:18;;;;;;;20.83;16.73;;;6.50;99.90;;;;;;5094389;28;20563;-65
2021/11/25 09:04:45;;;;;;;17.70;15.57;;;6.90;99.90;;;;;;5093636;28;20201;-65
2021/11/25 09:07:10;;;;;;;16.30;13.90;;;7.10;99.90;;;;;;5094257;28;20261;-63
2021/11/25 09:09:36;;;;;;;15.93;14.30;;;7.30;99.90;;;;;;5094030;28;20268;-65
2021/11/25 09:12:02;;;;;;;14.27;12.77;;;7.60;99.90;;;;;;5093853;28;20697;-64
2021/11/25 09:14:27;;;;;;;14.87;13.27;;;8.00;99.90;;;;;;5094324;28;20271;-64
2021/11/25 09:16:53;;;;;;;15.30;13.60;;;8.20;99.90;;;;;;5094234;28;20206;-65
2021/11/25 09:19:19;;;;;;;15.40;13.77;;;8.40;99.90;;;;;;5094550;28;20166;-65
2021/11/25 09:21:45;;;;;;;14.87;13.33;;;8.50;99.90;;;;;;5093381;28;20180;-65
2021/11/25 09:24:11;;;;;;;14.10;12.80;;;8.60;99.90;;;;;;5094511;28;20173;-65
2021/11/25 09:26:38;;;;;;;14.63;13.23;;;8.90;99.90;;;;;;5093724;28;20216;-64
2021/11/25 09:29:04;;;;;;;15.03;13.13;;;9.10;99.90;;;;;;5094088;28;20184;-65
2021/11/25 09:31:32;;;;;;;13.90;12.40;;;9.40;99.90;;;;;;5093139;28;20662;-65
2021/11/25 09:33:59;;;;;;;14.20;12.83;;;9.90;99.90;;;;;;5093980;28;20228;-65
2021/11/25 09:36:26;;;;;;;16.03;12.90;;;10.50;99.90;;;;;;5094380;28;20280;-65
2021/11/25 09:38:53;;;;;;;15.20;13.67;;;10.50;99.90;;;;;;5093914;28;20658;-65
2021/11/25 09:41:19;;;;;;;15.73;14.13;;;10.20;99.90;;;;;;5093431;28;20166;-65
2021/11/25 09:43:45;;;;;;;16.47;14.77;;;9.70;99.90;;;;;;5093619;28;20178;-65
2021/11/25 09:46:11;;;;;;;17.83;15.57;;;8.80;99.90;;;;;;5093868;28;20302;-65
2021/11/25 09:48:38;;;;;;;16.97;15.17;;;8.30;99.90;;;;;;5093604;28;20166;-65
2021/11/25 09:51:07;;;;;;;20.50;16.83;;;8.00;99.90;;;;;;5093423;28;20277;-65
2021/11/25 09:53:34;;;;;;;16.93;14.83;;;7.50;99.90;;;;;;5093680;28;20635;-65
2021/11/25 09:56:00;;;;;;;19.03;15.73;;;7.10;99.90;;;;;;5093711;28;20371;-65
2021/11/25 09:58:29;;;;;;;20.20;16.67;;;7.00;99.90;;;;;;5093644;28;20178;-65
2021/11/25 10:01:03;;;;;;;19.83;15.83;;;6.80;99.90;;;;;;5093266;28;20256;-65
2021/11/25 10:03:30;;;;;;;20.93;17.80;;;6.60;99.90;;;;;;5093607;28;20173;-65
2021/11/25 10:05:57;;;;;;;18.10;16.30;;;6.60;99.90;;;;;;5093219;28;20212;-65
2021/11/25 10:08:30;;;;;;;21.10;16.33;;;6.50;99.90;;;;;;5093467;28;20562;-64
2021/11/25 10:11:09;;;;;;;22.13;17.37;;;6.50;99.90;;;;;;5093039;28;20170;-65
2021/11/25 10:13:43;;;;;;;20.00;16.63;;;6.50;99.90;;;;;;5093664;28;20176;-65
2021/11/25 10:16:12;;;;;;;24.63;18.83;;;6.40;99.90;;;;;;5092900;28;20177;-64
2021/11/25 10:18:39;;;;;;;36.20;23.60;;;6.30;99.90;;;;;;5093166;28;20165;-65
2021/11/25 10:21:11;;;;;;;21.47;18.07;;;6.20;99.90;;;;;;5091839;28;20174;-65
2021/11/25 10:23:37;;;;;;;22.13;17.27;;;6.20;99.90;;;;;;5093050;28;20498;-65
2021/11/25 10:26:19;;;;;;;19.83;16.60;;;6.10;99.90;;;;;;5092810;28;20198;-64
2021/11/25 10:28:50;;;;;;;19.80;17.50;;;6.10;99.90;;;;;;5093091;28;20166;-65
2021/11/25 10:31:21;;;;;;;19.93;17.03;;;6.10;99.90;;;;;;5091444;28;20173;-64
2021/11/25 10:33:55;;;;;;;21.07;17.10;;;6.30;99.90;;;;;;5093141;28;20283;-65
2021/11/25 10:41:56;;;;;;;20.73;17.00;;;6.50;99.90;;;;;;5092666;28;20177;-65
2021/11/25 10:44:35;;;;;;;21.60;17.10;;;6.60;99.90;;;;;;5090640;28;20181;-65
2021/11/25 10:47:17;;;;;;;20.63;17.67;;;6.60;99.90;;;;;;5092208;28;20671;-65
2021/11/25 10:49:48;;;;;;;22.47;18.47;;;6.70;99.90;;;;;;5092245;28;20172;-65
2021/11/25 10:52:22;;;;;;;25.40;18.50;;;6.60;99.90;;;;;;5090718;28;20170;-65
2021/11/25 10:54:55;;;;;;;23.83;18.73;;;6.60;99.90;;;;;;5091222;28;20537;-65
2021/11/25 10:57:22;;;;;;;21.87;19.47;;;6.60;99.90;;;;;;5091876;28;20201;-65
2021/11/25 10:59:52;;;;;;;22.17;17.97;;;6.50;99.90;;;;;;5092080;28;20177;-64
2021/11/25 11:02:29;;;;;;;22.57;17.67;;;6.40;99.90;;;;;;5092126;28;20177;-63
2021/11/25 11:04:57;;;;;;;24.50;19.00;;;6.30;99.90;;;;;;5092022;28;20200;-65
2021/11/25 11:07:26;;;;;;;22.60;19.77;;;6.20;99.90;;;;;;5092049;28;20625;-65
2021/11/25 11:09:52;;;;;;;22.83;19.03;;;6.20;99.90;;;;;;5092178;28;20193;-64
2021/11/25 11:12:44;;;;;;;21.87;19.30;;;6.20;99.90;;;;;;5091834;28;20216;-64
2021/11/25 11:18:42;;;;;;;20.30;17.43;;;6.20;99.90;;;;;;5091505;28;20201;-65
2021/11/25 11:20:48;;;;;;;19.73;17.17;;;6.20;99.90;;;;;;5090521;28;20173;-65
2021/11/25 11:23:19;;;;;;;22.13;18.43;;;6.30;99.90;;;;;;5091706;28;20676;-64
2021/11/25 11:25:46;;;;;;;25.67;18.47;;;6.40;99.90;;;;;;5091942;28;20197;-64
2021/11/25 11:28:14;;;;;;;20.50;17.47;;;6.50;99.90;;;;;;5091693;28;20654;-64
2021/11/25 11:30:41;;;;;;;23.27;17.80;;;6.60;99.90;;;;;;5091261;28;20162;-65
2021/11/25 11:33:11;;;;;;;19.67;16.90;;;6.60;99.90;;;;;;5091321;28;20548;-64
2021/11/25 11:35:38;;;;;;;22.83;18.53;;;6.60;99.90;;;;;;5090081;28;20187;-65
2021/11/25 11:38:05;;;;;;;19.47;17.27;;;6.60;99.90;;;;;;5090122;28;20211;-65
2021/11/25 11:40:33;;;;;;;23.47;18.60;;;6.50;99.90;;;;;;5091024;28;20260;-65
2021/11/25 11:43:01;;;;;;;21.27;17.83;;;6.50;99.90;;;;;;5091288;28;20180;-64
2021/11/25 11:45:33;;;;;;;19.37;17.03;;;6.50;99.90;;;;;;5091422;28;20655;-65
2021/11/25 11:48:03;;;;;;;19.20;16.67;;;6.60;99.90;;;;;;5091298;28;20240;-65
2021/11/25 11:50:50;;;;;;;21.23;16.67;;;6.60;99.90;;;;;;5091151;28;20588;-65
2021/11/25 11:53:19;;;;;;;22.10;18.13;;;6.60;99.90;;;;;;5090984;28;20185;-65
2021/11/25 11:55:56;;;;;;;22.87;17.40;;;6.50;99.90;;;;;;5091405;28;20174;-65
2021/11/25 11:58:30;;;;;;;21.03;17.13;;;6.60;99.90;;;;;;5090682;28;20193;-65
2021/11/25 12:01:10;;;;;;;20.97;17.87;;;6.70;99.90;;;;;;5090749;28;20222;-65
2021/11/25 12:03:37;;;;;;;20.40;17.17;;;6.70;99.90;;;;;;5069621;28;20261;-64
2021/11/25 12:06:05;;;;;;;20.33;17.93;;;6.80;99.90;;;;;;5071159;28;20202;-65
2021/11/25 12:08:33;;;;;;;19.97;17.87;;;6.90;99.90;;;;;;5090426;28;20549;-67
2021/11/25 12:11:04;;;;;;;21.50;19.07;;;6.90;99.90;;;;;;5090794;28;20208;-66
2021/11/25 12:13:54;;;;;;;20.03;16.23;;;6.90;99.90;;;;;;5091560;28;20169;-65
2021/11/25 12:16:19;;;;;;;21.40;17.70;;;7.00;99.90;;;;;;5091710;28;20181;-65
2021/11/25 12:18:54;;;;;;;17.33;15.30;;;7.20;99.90;;;;;;5094947;28;20277;-65
2021/11/25 12:21:36;;;;;;;18.50;16.30;;;7.40;99.90;;;;;;5093879;28;20183;-65
2021/11/25 12:24:12;;;;;;;20.40;15.83;;;7.60;99.90;;;;;;5095664;28;20165;-65
2021/11/25 12:27:11;;;;;;;21.27;16.07;;;7.70;99.90;;;;;;5094609;28;20208;-65
2021/11/25 12:29:40;;;;;;;19.60;16.23;;;7.80;99.90;;;;;;5094563;28;20173;-65
2021/11/25 12:35:20;;;;;;;20.03;17.73;;;8.00;99.90;;;;;;5095444;28;20592;-65
2021/11/25 12:37:50;;;;;;;20.30;16.73;;;7.90;99.90;;;;;;5095154;28;20209;-65
2021/11/25 12:40:15;;;;;;;22.83;16.30;;;8.00;99.90;;;;;;5094839;28;20177;-65
2021/11/25 12:42:46;;;;;;;17.57;15.77;;;8.10;99.90;;;;;;5093561;28;20649;-65
2021/11/25 12:45:27;;;;;;;19.47;15.87;;;8.20;99.90;;;;;;5094374;28;20205;-66
2021/11/25 12:48:04;;;;;;;22.43;16.97;;;8.20;99.90;;;;;;5093065;28;20189;-65
2021/11/25 12:50:31;;;;;;;21.23;16.23;;;7.80;99.90;;;;;;5094241;28;20211;-65
2021/11/25 12:53:04;;;;;;;19.60;16.33;;;7.60;99.90;;;;;;5095163;28;20169;-64
2021/11/25 12:55:29;;;;;;;17.90;15.00;;;7.40;99.90;;;;;;5093298;28;20278;-65